Time;durP1;ratioP1;P1;durP2;ratioP2;P2;SDS_P1;SDS_P2;PMS_P1;PMS_P2;Temp;Humidity;BMP_temperature;BMP_pressure;BME280_temperature;BME280_humidity;BME280_pressure;Samples;Min_cycle;Max_cycle;Signal;HPM_P1;HPM_P2
2022/06/12 00:01:36;;;;;;;11.85;4.55;;;;;;;;;;5298990;27;20034;-79
2022/06/12 00:04:07;;;;;;;16.23;5.63;;;;;;;;;;5312529;27;20028;-78
2022/06/12 00:06:38;;;;;;;17.27;5.82;;;;;;;;;;5319199;27;20023;-79
2022/06/12 00:09:10;;;;;;;11.87;5.37;;;;;;;;;;5304644;27;20036;-79
2022/06/12 00:11:41;;;;;;;11.03;5.23;;;;;;;;;;5324142;27;21046;-79
2022/06/12 00:14:15;;;;;;;15.25;5.50;;;;;;;;;;5334190;27;20385;-78
2022/06/12 00:16:46;;;;;;;15.88;5.53;;;;;;;;;;5310271;27;20028;-79
2022/06/12 00:19:17;;;;;;;14.60;5.07;;;;;;;;;;5311569;27;20031;-79
2022/06/12 00:21:49;;;;;;;13.07;5.17;;;;;;;;;;5314883;27;20046;-80
2022/06/12 00:24:21;;;;;;;14.65;5.43;;;;;;;;;;5291520;27;20641;-80
2022/06/12 00:26:53;;;;;;;17.48;6.15;;;;;;;;;;5311796;27;20159;-80
2022/06/12 00:29:29;;;;;;;14.68;5.40;;;;;;;;;;5309144;27;20102;-80
2022/06/12 00:32:04;;;;;;;19.38;6.10;;;;;;;;;;5303481;27;20028;-80
2022/06/12 00:34:37;;;;;;;13.75;5.60;;;;;;;;;;5307777;27;20063;-79
2022/06/12 00:37:10;;;;;;;18.17;5.47;;;;;;;;;;5299020;27;20461;-80
2022/06/12 00:39:41;;;;;;;16.15;5.68;;;;;;;;;;5320545;27;20650;-80
2022/06/12 00:42:21;;;;;;;13.10;6.03;;;;;;;;;;5312545;27;20039;-80
2022/06/12 00:44:54;;;;;;;13.75;5.97;;;;;;;;;;5308385;27;20077;-80
2022/06/12 00:47:25;;;;;;;16.48;5.90;;;;;;;;;;5302881;27;20025;-80
2022/06/12 00:50:02;;;;;;;11.60;5.47;;;;;;;;;;5311693;27;20028;-80
2022/06/12 00:52:35;;;;;;;13.45;5.97;;;;;;;;;;5312700;27;20024;-79
2022/06/12 00:55:09;;;;;;;11.15;4.75;;;;;;;;;;5307220;27;20032;-80
2022/06/12 00:57:41;;;;;;;13.82;5.25;;;;;;;;;;5310523;27;20068;-79
2022/06/12 01:00:14;;;;;;;11.33;5.20;;;;;;;;;;5312364;27;20835;-79
2022/06/12 01:02:45;;;;;;;13.50;4.40;;;;;;;;;;5295775;27;20361;-80
2022/06/12 01:08:08;;;;;;;15.80;5.40;;;;;;;;;;5303726;27;20639;-80
2022/06/12 01:10:41;;;;;;;8.27;4.57;;;;;;;;;;5283917;27;20170;-79
2022/06/12 01:13:14;;;;;;;12.05;4.18;;;;;;;;;;5306649;27;20051;-79
2022/06/12 01:15:51;;;;;;;9.13;4.40;;;;;;;;;;5305058;27;20056;-80
2022/06/12 01:18:26;;;;;;;16.50;5.95;;;;;;;;;;5314562;27;20098;-80
2022/06/12 01:21:02;;;;;;;11.35;4.88;;;;;;;;;;5309751;27;20472;-80
2022/06/12 01:23:53;;;;;;;12.33;4.80;;;;;;;;;;5289928;27;20028;-79
2022/06/12 01:26:24;;;;;;;10.50;4.50;;;;;;;;;;5317245;27;20060;-80
2022/06/12 01:28:55;;;;;;;16.33;5.13;;;;;;;;;;5307810;27;20232;-80
2022/06/12 01:31:35;;;;;;;13.38;4.63;;;;;;;;;;5308367;27;20077;-80
2022/06/12 01:34:25;;;;;;;11.00;4.68;;;;;;;;;;5305670;27;20536;-80
2022/06/12 01:37:20;;;;;;;12.30;4.85;;;;;;;;;;5312227;27;20032;-80
2022/06/12 01:39:57;;;;;;;9.60;4.43;;;;;;;;;;5284893;27;20051;-80
2022/06/12 01:42:31;;;;;;;16.45;5.18;;;;;;;;;;5309713;27;20024;-80
2022/06/12 01:45:03;;;;;;;12.68;3.95;;;;;;;;;;5312848;27;20816;-80
2022/06/12 01:47:39;;;;;;;12.07;4.90;;;;;;;;;;5313180;27;20028;-80
2022/06/12 01:50:10;;;;;;;13.13;4.78;;;;;;;;;;5293810;27;21965;-80
2022/06/12 01:53:00;;;;;;;14.63;5.25;;;;;;;;;;5310877;27;20020;-80
2022/06/12 01:55:36;;;;;;;11.30;4.88;;;;;;;;;;5311737;27;20039;-80
2022/06/12 01:58:17;;;;;;;9.90;4.43;;;;;;;;;;5318807;27;20032;-80
2022/06/12 02:00:58;;;;;;;8.35;3.78;;;;;;;;;;5309298;27;20052;-80
2022/06/12 02:03:33;;;;;;;11.18;4.53;;;;;;;;;;5306676;27;20473;-80
2022/06/12 02:06:13;;;;;;;16.55;4.57;;;;;;;;;;5301986;27;20354;-80
2022/06/12 02:08:51;;;;;;;10.18;5.00;;;;;;;;;;5309592;27;20032;-80
2022/06/12 02:14:18;;;;;;;11.45;5.07;;;;;;;;;;5309073;27;20455;-80
2022/06/12 02:16:53;;;;;;;9.40;4.35;;;;;;;;;;5313514;27;20085;-80
2022/06/12 02:19:27;;;;;;;12.80;4.53;;;;;;;;;;5303040;27;20043;-80
2022/06/12 02:22:03;;;;;;;16.77;5.78;;;;;;;;;;5308674;27;20028;-80
2022/06/12 02:24:40;;;;;;;10.43;4.30;;;;;;;;;;5293248;27;20039;-81
2022/06/12 02:27:22;;;;;;;13.40;5.85;;;;;;;;;;5298163;27;20112;-80
2022/06/12 02:29:55;;;;;;;15.20;5.95;;;;;;;;;;5313724;27;20395;-80
2022/06/12 02:32:31;;;;;;;17.33;5.97;;;;;;;;;;5307268;27;20047;-80
2022/06/12 02:35:11;;;;;;;15.45;7.03;;;;;;;;;;5309327;27;20119;-80
2022/06/12 02:37:44;;;;;;;16.23;5.15;;;;;;;;;;5312982;27;20186;-81
2022/06/12 02:40:18;;;;;;;18.25;6.13;;;;;;;;;;5310420;27;20485;-80
2022/06/12 02:42:50;;;;;;;14.93;6.63;;;;;;;;;;5296820;27;20024;-80
2022/06/12 02:45:37;;;;;;;16.00;5.53;;;;;;;;;;5309683;27;20105;-80
2022/06/12 02:48:08;;;;;;;16.90;6.57;;;;;;;;;;5314730;27;20052;-80
2022/06/12 02:50:49;;;;;;;11.90;5.45;;;;;;;;;;5292299;27;20024;-80
2022/06/12 02:53:25;;;;;;;14.23;5.38;;;;;;;;;;5294452;27;20028;-80
2022/06/12 02:56:04;;;;;;;15.00;5.65;;;;;;;;;;5312710;27;20075;-80
2022/06/12 02:58:41;;;;;;;12.70;5.25;;;;;;;;;;5294170;27;20384;-80
2022/06/12 03:01:15;;;;;;;17.85;6.00;;;;;;;;;;5321057;27;20040;-80
2022/06/12 03:03:52;;;;;;;12.25;5.50;;;;;;;;;;5315937;27;20024;-80
2022/06/12 03:06:26;;;;;;;15.40;5.88;;;;;;;;;;5310133;27;20040;-81
2022/06/12 03:08:58;;;;;;;20.85;5.88;;;;;;;;;;5283504;27;20468;-81
2022/06/12 03:11:33;;;;;;;12.90;5.93;;;;;;;;;;5306122;27;20103;-80
2022/06/12 03:14:08;;;;;;;13.48;6.28;;;;;;;;;;5309480;27;20044;-80
2022/06/12 03:16:41;;;;;;;12.27;5.72;;;;;;;;;;5307233;27;20024;-80
2022/06/12 03:19:19;;;;;;;18.73;6.97;;;;;;;;;;5324334;27;20484;-80
2022/06/12 03:22:02;;;;;;;14.98;6.30;;;;;;;;;;5312414;27;20419;-80
2022/06/12 03:24:34;;;;;;;12.23;6.13;;;;;;;;;;5310345;27;20032;-81
2022/06/12 03:27:05;;;;;;;16.17;6.22;;;;;;;;;;5313213;27;20033;-80
2022/06/12 03:29:55;;;;;;;12.52;5.68;;;;;;;;;;5313057;27;20099;-80
2022/06/12 03:32:33;;;;;;;12.63;5.13;;;;;;;;;;5308699;27;20067;-80
2022/06/12 03:35:13;;;;;;;22.00;7.13;;;;;;;;;;5310890;27;20052;-80
2022/06/12 03:37:44;;;;;;;15.70;6.38;;;;;;;;;;5316007;27;20794;-80
2022/06/12 03:40:20;;;;;;;19.63;6.78;;;;;;;;;;5316044;27;20028;-80
2022/06/12 03:42:53;;;;;;;15.70;6.97;;;;;;;;;;5311406;27;20380;-80
2022/06/12 03:45:28;;;;;;;14.23;5.82;;;;;;;;;;5326226;27;20035;-80
2022/06/12 03:48:06;;;;;;;11.20;5.57;;;;;;;;;;5309077;27;20082;-81
2022/06/12 03:50:43;;;;;;;10.70;6.05;;;;;;;;;;5324845;27;20070;-80
2022/06/12 03:53:17;;;;;;;14.25;6.68;;;;;;;;;;5316087;27;20108;-80
2022/06/12 03:58:47;;;;;;;11.50;6.05;;;;;;;;;;5309404;27;20036;-80
2022/06/12 04:01:19;;;;;;;14.10;5.70;;;;;;;;;;5306072;27;20028;-80
2022/06/12 04:03:51;;;;;;;12.55;6.28;;;;;;;;;;5307951;27;20449;-80
2022/06/12 04:06:25;;;;;;;13.25;5.78;;;;;;;;;;5310242;27;20032;-80
2022/06/12 04:09:00;;;;;;;13.88;5.15;;;;;;;;;;5286055;27;20400;-81
2022/06/12 04:11:33;;;;;;;16.08;5.88;;;;;;;;;;5287900;27;20051;-80
2022/06/12 04:14:06;;;;;;;11.20;5.05;;;;;;;;;;5315974;27;20111;-80
2022/06/12 04:16:42;;;;;;;13.80;5.00;;;;;;;;;;5307213;27;20144;-80
2022/06/12 04:19:14;;;;;;;;;;;;;;;;;;5287596;27;20032;-80
2022/06/12 04:21:52;;;;;;;11.05;4.53;;;;;;;;;;5308258;27;19912;-80
2022/06/12 04:24:25;;;;;;;10.82;4.80;;;;;;;;;;5307216;27;20069;-80
2022/06/12 04:27:16;;;;;;;11.68;5.10;;;;;;;;;;5309535;27;20059;-80
2022/06/12 04:29:57;;;;;;;8.43;4.75;;;;;;;;;;5311589;27;20041;-80
2022/06/12 04:32:30;;;;;;;8.45;4.40;;;;;;;;;;5316612;27;20110;-80
2022/06/12 04:35:01;;;;;;;13.48;5.50;;;;;;;;;;5317217;27;20032;-80
2022/06/12 04:37:33;;;;;;;10.37;4.50;;;;;;;;;;5309056;27;20021;-80
2022/06/12 04:40:07;;;;;;;13.50;4.40;;;;;;;;;;5303209;27;20281;-80
2022/06/12 04:42:39;;;;;;;11.90;4.70;;;;;;;;;;5295310;27;20619;-80
2022/06/12 04:45:11;;;;;;;12.50;5.00;;;;;;;;;;5303600;27;20037;-80
2022/06/12 04:47:42;;;;;;;8.68;4.05;;;;;;;;;;5312836;27;20277;-80
2022/06/12 04:50:14;;;;;;;12.77;5.10;;;;;;;;;;5306779;27;20041;-80
2022/06/12 04:52:46;;;;;;;12.20;4.38;;;;;;;;;;5310157;27;20052;-80
2022/06/12 04:55:17;;;;;;;13.02;4.32;;;;;;;;;;5308205;27;20028;-80
2022/06/12 04:57:48;;;;;;;14.88;4.68;;;;;;;;;;5309503;27;20028;-80
2022/06/12 05:00:20;;;;;;;12.83;4.83;;;;;;;;;;5317349;27;20036;-80
2022/06/12 05:02:51;;;;;;;9.65;3.97;;;;;;;;;;5322305;27;20368;-80
2022/06/12 05:05:22;;;;;;;13.77;4.90;;;;;;;;;;5306870;27;20588;-80
2022/06/12 05:07:53;;;;;;;9.90;4.28;;;;;;;;;;5312903;27;20352;-80
2022/06/12 05:10:25;;;;;;;14.23;5.18;;;;;;;;;;5306121;27;20031;-80
2022/06/12 05:12:56;;;;;;;9.30;4.30;;;;;;;;;;5303430;27;20346;-80
2022/06/12 05:15:28;;;;;;;14.43;4.20;;;;;;;;;;5306485;27;20040;-80
2022/06/12 05:17:59;;;;;;;11.95;4.32;;;;;;;;;;5310434;27;20024;-80
2022/06/12 05:20:32;;;;;;;12.15;3.90;;;;;;;;;;5309821;27;20060;-80
2022/06/12 05:23:05;;;;;;;14.10;4.93;;;;;;;;;;5311739;27;20111;-80
2022/06/12 05:25:36;;;;;;;10.50;3.80;;;;;;;;;;5312606;27;20028;-80
2022/06/12 05:28:07;;;;;;;14.77;5.13;;;;;;;;;;5305032;27;20139;-80
2022/06/12 05:30:38;;;;;;;13.73;3.72;;;;;;;;;;5304288;27;20028;-80
2022/06/12 05:33:11;;;;;;;9.43;4.32;;;;;;;;;;5305714;27;20040;-80
2022/06/12 05:35:42;;;;;;;11.95;4.07;;;;;;;;;;5307969;27;20274;-80
2022/06/12 05:38:13;;;;;;;13.27;4.20;;;;;;;;;;5302049;27;20041;-80
2022/06/12 05:40:44;;;;;;;12.85;4.20;;;;;;;;;;5287940;28;20800;-80
2022/06/12 05:43:16;;;;;;;14.23;4.63;;;;;;;;;;5310402;27;20044;-80
2022/06/12 05:45:47;;;;;;;13.00;4.50;;;;;;;;;;5305526;27;20040;-81
2022/06/12 05:48:19;;;;;;;13.48;4.05;;;;;;;;;;5306204;27;20396;-80
2022/06/12 05:50:55;;;;;;;10.95;4.15;;;;;;;;;;5292061;27;20349;-80
2022/06/12 05:53:27;;;;;;;13.30;4.78;;;;;;;;;;5311100;27;20514;-80
2022/06/12 05:55:59;;;;;;;17.38;5.82;;;;;;;;;;5289347;27;20047;-80
2022/06/12 05:58:30;;;;;;;15.65;4.80;;;;;;;;;;5307660;27;20032;-80
2022/06/12 06:01:01;;;;;;;12.90;4.22;;;;;;;;;;5316630;27;20511;-80
2022/06/12 06:03:33;;;;;;;15.65;5.45;;;;;;;;;;5320359;27;20082;-80
2022/06/12 06:06:05;;;;;;;12.75;3.92;;;;;;;;;;5307849;27;20056;-80
2022/06/12 06:08:37;;;;;;;14.02;4.07;;;;;;;;;;5291706;27;20174;-80
2022/06/12 06:11:08;;;;;;;12.37;4.07;;;;;;;;;;5311228;27;20036;-80
2022/06/12 06:13:39;;;;;;;14.27;5.03;;;;;;;;;;5312860;27;20028;-80
2022/06/12 06:16:10;;;;;;;16.90;5.38;;;;;;;;;;5311096;27;20106;-80
2022/06/12 06:18:42;;;;;;;15.27;4.90;;;;;;;;;;5324847;27;20036;-80
2022/06/12 06:21:14;;;;;;;17.25;5.47;;;;;;;;;;5313543;27;21129;-80
2022/06/12 06:23:46;;;;;;;18.67;4.65;;;;;;;;;;5314011;27;20114;-80
2022/06/12 06:26:19;;;;;;;19.38;5.43;;;;;;;;;;5310955;27;20033;-80
2022/06/12 06:28:51;;;;;;;18.48;4.93;;;;;;;;;;5304749;27;20133;-80
2022/06/12 06:31:22;;;;;;;20.15;5.00;;;;;;;;;;5309131;27;20028;-80
2022/06/12 06:33:54;;;;;;;15.52;4.53;;;;;;;;;;5309622;27;20056;-80
2022/06/12 06:36:26;;;;;;;17.40;5.32;;;;;;;;;;5292308;27;20404;-81
2022/06/12 06:38:57;;;;;;;15.15;4.65;;;;;;;;;;5297157;27;20036;-80
2022/06/12 06:41:28;;;;;;;17.88;4.97;;;;;;;;;;5316950;27;20036;-80
2022/06/12 06:46:49;;;;;;;18.25;5.40;;;;;;;;;;5311993;27;20028;-81
2022/06/12 06:49:21;;;;;;;20.47;5.53;;;;;;;;;;5292147;27;20089;-80
2022/06/12 06:51:52;;;;;;;18.33;5.60;;;;;;;;;;5318633;27;20649;-80
2022/06/12 06:54:24;;;;;;;24.20;6.60;;;;;;;;;;5293648;27;20094;-80
2022/06/12 06:56:55;;;;;;;14.73;5.38;;;;;;;;;;5315202;27;20016;-80
2022/06/12 06:59:26;;;;;;;18.70;5.00;;;;;;;;;;5310876;27;20028;-80
2022/06/12 07:01:57;;;;;;;14.27;4.43;;;;;;;;;;5328698;27;20063;-81
2022/06/12 07:04:29;;;;;;;18.70;5.07;;;;;;;;;;5332920;27;20230;-80
2022/06/12 07:07:01;;;;;;;12.57;4.68;;;;;;;;;;5334965;27;20438;-79
2022/06/12 07:09:32;;;;;;;23.05;6.25;;;;;;;;;;5312416;27;20092;-79
2022/06/12 07:12:04;;;;;;;18.60;5.30;;;;;;;;;;5330359;27;20032;-80
2022/06/12 07:14:35;;;;;;;14.80;4.78;;;;;;;;;;5317040;27;20299;-80
2022/06/12 07:17:09;;;;;;;17.67;5.45;;;;;;;;;;5306347;27;20056;-80
2022/06/12 07:19:41;;;;;;;14.13;4.53;;;;;;;;;;5312873;27;20112;-80
2022/06/12 07:22:12;;;;;;;19.63;5.35;;;;;;;;;;5315305;27;20040;-80
2022/06/12 07:24:43;;;;;;;15.60;5.03;;;;;;;;;;5312150;27;20082;-80
2022/06/12 07:27:14;;;;;;;16.98;4.75;;;;;;;;;;5309429;27;20734;-80
2022/06/12 07:29:46;;;;;;;16.55;5.20;;;;;;;;;;5298324;27;20403;-80
2022/06/12 07:32:18;;;;;;;16.33;5.65;;;;;;;;;;5308126;27;20056;-80
2022/06/12 07:34:50;;;;;;;20.27;5.45;;;;;;;;;;5310287;27;20433;-81
2022/06/12 07:37:21;;;;;;;12.90;4.55;;;;;;;;;;5305893;27;20025;-81
2022/06/12 07:39:52;;;;;;;18.73;6.10;;;;;;;;;;5291571;27;20036;-80
2022/06/12 07:42:24;;;;;;;14.40;5.20;;;;;;;;;;5309051;27;20468;-81
2022/06/12 07:44:55;;;;;;;16.67;5.33;;;;;;;;;;5310497;27;20032;-81
2022/06/12 07:47:27;;;;;;;15.87;4.93;;;;;;;;;;5307510;27;20270;-81
2022/06/12 07:50:01;;;;;;;18.15;5.18;;;;;;;;;;5308926;27;20642;-81
2022/06/12 07:52:32;;;;;;;13.40;4.68;;;;;;;;;;5290304;28;20078;-80
2022/06/12 07:55:04;;;;;;;17.00;5.03;;;;;;;;;;5311886;27;20434;-80
2022/06/12 07:57:36;;;;;;;13.32;4.32;;;;;;;;;;5309450;27;20033;-80
2022/06/12 08:00:08;;;;;;;15.25;4.65;;;;;;;;;;5307556;27;20051;-80
2022/06/12 08:02:40;;;;;;;12.98;4.38;;;;;;;;;;5287591;27;20028;-80
2022/06/12 08:05:12;;;;;;;10.38;3.88;;;;;;;;;;5308279;27;20221;-80
2022/06/12 08:07:44;;;;;;;16.40;4.68;;;;;;;;;;5316154;27;20543;-80
2022/06/12 08:10:15;;;;;;;16.93;4.40;;;;;;;;;;5308022;27;20020;-79
2022/06/12 08:12:47;;;;;;;16.10;4.45;;;;;;;;;;5319900;27;20024;-80
2022/06/12 08:15:20;;;;;;;10.75;4.13;;;;;;;;;;5312911;27;20037;-80
2022/06/12 08:17:52;;;;;;;12.75;4.07;;;;;;;;;;5315760;27;20043;-80
2022/06/12 08:20:24;;;;;;;13.73;3.65;;;;;;;;;;5318268;27;20035;-80
2022/06/12 08:22:58;;;;;;;10.50;3.75;;;;;;;;;;5330660;27;20380;-80
2022/06/12 08:25:32;;;;;;;10.40;4.00;;;;;;;;;;5319374;27;20025;-79
2022/06/12 08:28:03;;;;;;;10.85;3.92;;;;;;;;;;5334543;27;20112;-78
2022/06/12 08:30:34;;;;;;;13.88;4.18;;;;;;;;;;5325831;27;20059;-79
2022/06/12 08:33:05;;;;;;;14.93;4.60;;;;;;;;;;5303056;28;20416;-78
2022/06/12 08:35:37;;;;;;;14.67;4.80;;;;;;;;;;5306438;28;20048;-78
2022/06/12 08:38:08;;;;;;;12.52;4.70;;;;;;;;;;5304229;28;20029;-79
2022/06/12 08:40:52;;;;;;;10.97;4.07;;;;;;;;;;5319765;27;20399;-79
2022/06/12 08:43:41;;;;;;;14.43;5.45;;;;;;;;;;5322082;27;20274;-79
2022/06/12 08:46:21;;;;;;;10.27;4.32;;;;;;;;;;5324283;27;20040;-79
2022/06/12 08:48:59;;;;;;;15.40;5.38;;;;;;;;;;5311473;27;20050;-79
2022/06/12 08:51:33;;;;;;;12.82;5.10;;;;;;;;;;5332034;27;20035;-79
2022/06/12 08:54:09;;;;;;;9.90;4.22;;;;;;;;;;5292859;27;20023;-79
2022/06/12 08:56:40;;;;;;;;;;;;;;;;;;5318400;27;20509;-79
2022/06/12 08:59:15;;;;;;;14.90;4.28;;;;;;;;;;5299023;27;19920;-79
2022/06/12 09:01:46;;;;;;;10.45;3.85;;;;;;;;;;5311883;28;20115;-79
2022/06/12 09:04:19;;;;;;;10.18;3.63;;;;;;;;;;5320387;27;20409;-79
2022/06/12 09:06:57;;;;;;;11.00;3.95;;;;;;;;;;5319657;27;20051;-79
2022/06/12 09:09:48;;;;;;;12.15;4.65;;;;;;;;;;5311081;27;20395;-79
2022/06/12 09:12:33;;;;;;;13.38;3.72;;;;;;;;;;5315594;27;20027;-80
2022/06/12 09:15:05;;;;;;;10.10;3.60;;;;;;;;;;5329698;27;20032;-80
2022/06/12 09:17:43;;;;;;;12.85;3.78;;;;;;;;;;5320816;27;20039;-80
2022/06/12 09:20:21;;;;;;;12.13;3.88;;;;;;;;;;5316473;27;20058;-80
2022/06/12 09:22:54;;;;;;;9.63;3.63;;;;;;;;;;5297696;27;20027;-81
2022/06/12 09:25:36;;;;;;;9.48;4.07;;;;;;;;;;5307272;27;20038;-80
2022/06/12 09:28:10;;;;;;;10.52;3.53;;;;;;;;;;5317946;27;20023;-80
2022/06/12 09:30:51;;;;;;;10.35;3.88;;;;;;;;;;5297669;27;20036;-81
2022/06/12 09:33:41;;;;;;;12.15;3.80;;;;;;;;;;5327782;27;20063;-80
2022/06/12 09:36:31;;;;;;;9.93;4.20;;;;;;;;;;5316797;27;20043;-81
2022/06/12 09:39:08;;;;;;;10.20;3.70;;;;;;;;;;5315944;27;20047;-80
2022/06/12 09:41:55;;;;;;;12.18;3.53;;;;;;;;;;5314139;27;20138;-81
2022/06/12 09:44:42;;;;;;;8.85;3.67;;;;;;;;;;5313486;27;20120;-80
2022/06/12 09:47:32;;;;;;;10.32;3.35;;;;;;;;;;5329026;27;20048;-81
2022/06/12 09:50:08;;;;;;;10.57;3.35;;;;;;;;;;5315711;27;20051;-81
2022/06/12 09:52:58;;;;;;;8.68;3.08;;;;;;;;;;5310267;27;20373;-80
2022/06/12 09:55:46;;;;;;;8.82;3.10;;;;;;;;;;5323996;27;20032;-80
2022/06/12 09:58:18;;;;;;;8.50;3.15;;;;;;;;;;5310305;27;20028;-81
2022/06/12 10:01:04;;;;;;;9.85;3.78;;;;;;;;;;5320981;27;20073;-80
2022/06/12 10:03:39;;;;;;;12.32;3.53;;;;;;;;;;5316038;27;20043;-81
2022/06/12 10:06:24;;;;;;;10.00;2.95;;;;;;;;;;5326362;27;20028;-80
2022/06/12 10:08:56;;;;;;;9.07;3.00;;;;;;;;;;5310118;27;20071;-80
2022/06/12 10:11:31;;;;;;;11.00;3.35;;;;;;;;;;5317351;27;20031;-81
2022/06/12 10:14:02;;;;;;;;;;;;;;;;;;5308210;27;20147;-80
2022/06/12 10:16:33;;;;;;;10.18;3.75;;;;;;;;;;5317234;27;20479;-81
2022/06/12 10:19:05;;;;;;;9.55;3.22;;;;;;;;;;5315303;27;20071;-81
2022/06/12 10:21:37;;;;;;;12.75;3.97;;;;;;;;;;5327437;27;20040;-81
2022/06/12 10:24:12;;;;;;;12.18;3.75;;;;;;;;;;5307270;27;20120;-80
2022/06/12 10:26:53;;;;;;;11.90;3.67;;;;;;;;;;5322308;27;20125;-81
2022/06/12 10:29:24;;;;;;;8.88;2.85;;;;;;;;;;5321983;27;20039;-80
2022/06/12 10:31:56;;;;;;;7.93;2.80;;;;;;;;;;5314044;27;20037;-80
2022/06/12 10:34:28;;;;;;;7.50;3.03;;;;;;;;;;5311189;27;20118;-80
2022/06/12 10:37:17;;;;;;;13.30;3.38;;;;;;;;;;5309111;27;20242;-81
2022/06/12 10:40:03;;;;;;;10.50;2.95;;;;;;;;;;5314328;27;20040;-80
2022/06/12 10:42:39;;;;;;;9.68;3.03;;;;;;;;;;5316393;27;20448;-81
2022/06/12 10:45:19;;;;;;;8.27;2.72;;;;;;;;;;5323137;27;20086;-81
2022/06/12 10:47:51;;;;;;;10.52;2.70;;;;;;;;;;5325486;27;20031;-81
2022/06/12 10:50:27;;;;;;;8.60;2.72;;;;;;;;;;5322887;27;20040;-80
2022/06/12 10:53:00;;;;;;;6.65;2.60;;;;;;;;;;5316996;27;20038;-81
2022/06/12 10:55:32;;;;;;;7.43;2.22;;;;;;;;;;5334430;27;20089;-81
2022/06/12 10:58:06;;;;;;;10.98;2.95;;;;;;;;;;5328849;27;20112;-80
2022/06/12 11:00:40;;;;;;;9.45;2.67;;;;;;;;;;5311857;27;20170;-81
2022/06/12 11:03:11;;;;;;;9.98;3.00;;;;;;;;;;5313446;27;20099;-81
2022/06/12 11:05:55;;;;;;;6.90;2.28;;;;;;;;;;5348751;27;20110;-80
2022/06/12 11:08:29;;;;;;;8.50;2.53;;;;;;;;;;5318162;27;20764;-81
2022/06/12 11:11:10;;;;;;;9.48;2.42;;;;;;;;;;5305437;28;20481;-81
2022/06/12 11:13:52;;;;;;;11.18;2.90;;;;;;;;;;5326161;28;20448;-80
2022/06/12 11:16:33;;;;;;;6.97;2.70;;;;;;;;;;5311474;28;20083;-78
2022/06/12 11:19:11;;;;;;;12.70;3.08;;;;;;;;;;5286126;28;20033;-81
2022/06/12 11:21:57;;;;;;;10.32;2.80;;;;;;;;;;5304801;28;20021;-81
2022/06/12 11:24:36;;;;;;;9.27;2.75;;;;;;;;;;5306118;28;20135;-81
2022/06/12 11:27:07;;;;;;;8.70;2.80;;;;;;;;;;5325542;27;20102;-80
2022/06/12 11:29:57;;;;;;;10.70;3.03;;;;;;;;;;5325377;28;20103;-80
2022/06/12 11:32:31;;;;;;;8.43;2.50;;;;;;;;;;5307740;28;20512;-81
2022/06/12 11:35:26;;;;;;;9.05;2.67;;;;;;;;;;5307946;28;20336;-81
2022/06/12 11:38:13;;;;;;;7.90;2.13;;;;;;;;;;5326565;28;20016;-81
2022/06/12 11:40:49;;;;;;;8.75;2.17;;;;;;;;;;5325494;28;20418;-81
2022/06/12 11:43:25;;;;;;;9.43;2.67;;;;;;;;;;5300726;28;20519;-81
2022/06/12 11:46:01;;;;;;;6.80;2.72;;;;;;;;;;5301627;28;20063;-81
2022/06/12 11:48:32;;;;;;;;;;;;;;;;;;5286167;28;20031;-81
2022/06/12 11:51:09;;;;;;;7.88;2.00;;;;;;;;;;5315253;28;20014;-81
2022/06/12 11:53:59;;;;;;;7.45;2.17;;;;;;;;;;5326147;28;20456;-81
2022/06/12 11:56:35;;;;;;;7.30;2.00;;;;;;;;;;5326025;28;20353;-80
2022/06/12 11:59:18;;;;;;;8.63;2.35;;;;;;;;;;5324134;27;20044;-81
2022/06/12 12:01:59;;;;;;;6.53;2.10;;;;;;;;;;5307891;28;20026;-80
2022/06/12 12:04:48;;;;;;;6.15;1.70;;;;;;;;;;5307167;28;20138;-81
2022/06/12 12:07:33;;;;;;;6.00;2.30;;;;;;;;;;5307593;28;20020;-80
2022/06/12 12:10:15;;;;;;;7.53;2.10;;;;;;;;;;5325568;28;20068;-81
2022/06/12 12:12:49;;;;;;;7.85;2.20;;;;;;;;;;5306862;28;20088;-80
2022/06/12 12:15:23;;;;;;;8.13;2.35;;;;;;;;;;5318799;27;20031;-80
2022/06/12 12:17:56;;;;;;;8.55;3.20;;;;;;;;;;5304248;28;20056;-80
2022/06/12 12:20:35;;;;;;;8.15;2.33;;;;;;;;;;5286273;28;20074;-81
2022/06/12 12:23:25;;;;;;;6.13;2.25;;;;;;;;;;5304184;28;20397;-81
2022/06/12 12:26:01;;;;;;;9.77;2.67;;;;;;;;;;5312523;28;20024;-80
2022/06/12 12:28:39;;;;;;;7.10;2.60;;;;;;;;;;5324074;28;20036;-81
2022/06/12 12:31:12;;;;;;;7.13;2.42;;;;;;;;;;5305316;28;20145;-81
2022/06/12 12:33:44;;;;;;;7.93;2.30;;;;;;;;;;5320386;27;20111;-80
2022/06/12 12:42:20;;;;;;;8.27;2.08;;;;;;;;;;5328991;27;20028;-81
2022/06/12 12:44:51;;;;;;;9.38;2.88;;;;;;;;;;5342101;27;20490;-80
2022/06/12 12:47:27;;;;;;;6.32;1.90;;;;;;;;;;5337409;27;20092;-80
2022/06/12 12:50:09;;;;;;;9.30;2.28;;;;;;;;;;5316366;27;20025;-80
2022/06/12 12:52:50;;;;;;;6.90;2.08;;;;;;;;;;5317139;27;20354;-80
2022/06/12 12:55:28;;;;;;;4.47;1.50;;;;;;;;;;5303267;28;20035;-80
2022/06/12 12:58:00;;;;;;;8.32;2.00;;;;;;;;;;5318930;27;20115;-80
2022/06/12 13:00:33;;;;;;;7.45;2.08;;;;;;;;;;5318146;27;20543;-80
2022/06/12 13:03:20;;;;;;;6.07;1.83;;;;;;;;;;5324480;27;20157;-81
2022/06/12 13:06:00;;;;;;;9.65;2.10;;;;;;;;;;5320490;28;20040;-80
2022/06/12 13:08:34;;;;;;;6.03;2.33;;;;;;;;;;5304526;28;20024;-80
2022/06/12 13:11:24;;;;;;;6.00;1.88;;;;;;;;;;5324270;28;20028;-80
2022/06/12 13:13:55;;;;;;;7.05;1.85;;;;;;;;;;5323767;28;20468;-80
2022/06/12 13:16:46;;;;;;;9.57;2.20;;;;;;;;;;5318205;27;20020;-80
2022/06/12 13:19:29;;;;;;;9.98;2.40;;;;;;;;;;5315102;27;20040;-80
2022/06/12 13:22:18;;;;;;;6.18;1.55;;;;;;;;;;5310546;27;20043;-80
2022/06/12 13:24:59;;;;;;;7.68;1.90;;;;;;;;;;5320500;27;20024;-80
2022/06/12 13:27:32;;;;;;;4.38;1.58;;;;;;;;;;5304318;27;20028;-80
2022/06/12 13:30:16;;;;;;;6.35;2.03;;;;;;;;;;5302868;28;20056;-80
2022/06/12 13:32:47;;;;;;;6.63;1.90;;;;;;;;;;5315131;27;20044;-80
2022/06/12 13:35:29;;;;;;;7.95;1.98;;;;;;;;;;5339611;27;20043;-80
2022/06/12 13:38:04;;;;;;;5.47;1.90;;;;;;;;;;5319813;27;20024;-76
2022/06/12 13:40:40;;;;;;;4.97;1.80;;;;;;;;;;5316490;27;20036;-79
2022/06/12 13:43:13;;;;;;;5.07;2.00;;;;;;;;;;5315043;27;20074;-79
2022/06/12 13:45:49;;;;;;;5.78;2.05;;;;;;;;;;5296254;27;20044;-79
2022/06/12 13:48:24;;;;;;;12.15;2.10;;;;;;;;;;5315300;27;20111;-79
2022/06/12 13:51:04;;;;;;;4.72;1.23;;;;;;;;;;5315487;27;20086;-80
2022/06/12 13:53:43;;;;;;;9.82;1.98;;;;;;;;;;5329581;27;20055;-80
2022/06/12 13:56:16;;;;;;;5.25;1.83;;;;;;;;;;5313644;27;20078;-80
2022/06/12 13:58:54;;;;;;;9.25;1.80;;;;;;;;;;5310159;27;20044;-80
2022/06/12 14:01:30;;;;;;;5.05;1.77;;;;;;;;;;5311550;27;20480;-80
2022/06/12 14:04:04;;;;;;;6.93;1.83;;;;;;;;;;5304157;27;20039;-80
2022/06/12 14:06:37;;;;;;;5.18;1.80;;;;;;;;;;5320424;27;20027;-79
2022/06/12 14:09:16;;;;;;;5.13;1.63;;;;;;;;;;5320940;27;20032;-80
2022/06/12 14:11:49;;;;;;;7.40;1.83;;;;;;;;;;5308411;28;20032;-80
2022/06/12 14:14:23;;;;;;;7.88;2.25;;;;;;;;;;5292621;27;20029;-80
2022/06/12 14:16:54;;;;;;;9.02;1.90;;;;;;;;;;5328587;27;20162;-80
2022/06/12 14:19:30;;;;;;;6.82;2.03;;;;;;;;;;5313561;27;20512;-80
2022/06/12 14:22:16;;;;;;;12.13;2.38;;;;;;;;;;5324945;27;20054;-80
2022/06/12 14:24:59;;;;;;;5.28;1.67;;;;;;;;;;5295719;28;20081;-80
2022/06/12 14:27:32;;;;;;;4.07;1.55;;;;;;;;;;5328250;27;20377;-80
2022/06/12 14:30:06;;;;;;;2.20;1.42;;;;;;;;;;5330160;27;20055;-79
2022/06/12 14:32:46;;;;;;;5.85;1.92;;;;;;;;;;5323847;27;20043;-79
2022/06/12 14:35:19;;;;;;;3.58;1.27;;;;;;;;;;5323087;27;20032;-79
2022/06/12 14:37:50;;;;;;;6.05;1.73;;;;;;;;;;5319398;27;20032;-80
2022/06/12 14:40:33;;;;;;;5.07;1.40;;;;;;;;;;5312427;28;20032;-80
2022/06/12 14:43:09;;;;;;;7.05;1.80;;;;;;;;;;5310629;27;20093;-80
2022/06/12 14:45:41;;;;;;;3.88;1.50;;;;;;;;;;5292278;27;20070;-80
2022/06/12 14:48:14;;;;;;;4.50;1.55;;;;;;;;;;5309051;27;20673;-80
2022/06/12 14:50:46;;;;;;;8.55;1.67;;;;;;;;;;5314313;28;20088;-80
2022/06/12 14:53:17;;;;;;;4.63;1.55;;;;;;;;;;5317540;27;20032;-80
2022/06/12 14:55:49;;;;;;;9.00;1.87;;;;;;;;;;5318047;27;20392;-80
2022/06/12 14:58:34;;;;;;;5.45;1.40;;;;;;;;;;5324775;27;20273;-80
2022/06/12 15:01:06;;;;;;;7.32;1.67;;;;;;;;;;5325017;27;20040;-81
2022/06/12 15:03:38;;;;;;;6.50;1.63;;;;;;;;;;5307099;28;20031;-81
2022/06/12 15:06:09;;;;;;;7.13;1.73;;;;;;;;;;5308714;27;20036;-81
2022/06/12 15:08:41;;;;;;;4.60;1.67;;;;;;;;;;5325687;27;20020;-81
2022/06/12 15:11:14;;;;;;;3.75;1.70;;;;;;;;;;5322427;27;20395;-81
2022/06/12 15:13:46;;;;;;;4.95;1.75;;;;;;;;;;5326038;28;20078;-80
2022/06/12 15:16:18;;;;;;;6.10;1.77;;;;;;;;;;5312388;27;20102;-81
2022/06/12 15:18:49;;;;;;;5.35;1.85;;;;;;;;;;5316811;27;20134;-79
2022/06/12 15:21:22;;;;;;;4.87;1.27;;;;;;;;;;5326425;27;20024;-79
2022/06/12 15:23:54;;;;;;;5.00;1.30;;;;;;;;;;5325050;27;20035;-80
2022/06/12 15:32:05;;;;;;;4.75;1.23;;;;;;;;;;5311754;27;20024;-81
2022/06/12 15:34:36;;;;;;;5.25;1.10;;;;;;;;;;5311700;27;20035;-80
2022/06/12 15:37:08;;;;;;;5.63;1.80;;;;;;;;;;5303774;27;20020;-80
2022/06/12 15:39:39;;;;;;;4.18;1.52;;;;;;;;;;5309614;27;20040;-80
2022/06/12 15:42:13;;;;;;;4.80;1.63;;;;;;;;;;5316106;27;20029;-79
2022/06/12 15:44:44;;;;;;;4.05;1.23;;;;;;;;;;5315900;27;20330;-80
2022/06/12 15:47:15;;;;;;;4.75;1.42;;;;;;;;;;5295910;27;20445;-80